createdAt,value
2022-10-10T00:00:29.264Z,3.10
2022-10-10T00:02:30.926Z,3.28
2022-10-10T00:04:32.575Z,2.78
2022-10-10T00:06:34.735Z,3.17
2022-10-10T00:08:36.593Z,2.97
2022-10-10T00:10:38.267Z,2.47
2022-10-10T00:12:39.966Z,2.70
2022-10-10T00:14:41.635Z,2.97
2022-10-10T00:16:43.389Z,3.25
2022-10-10T00:18:45.345Z,2.40
2022-10-10T00:20:47.049Z,3.05
2022-10-10T00:22:49.098Z,3.25
2022-10-10T00:24:50.968Z,2.60
2022-10-10T00:26:52.675Z,2.55
2022-10-10T00:28:54.357Z,2.78
2022-10-10T00:30:56.079Z,2.92
2022-10-10T00:33:01.311Z,2.30
2022-10-10T00:35:04.339Z,2.53
2022-10-10T00:37:06.406Z,2.72
2022-10-10T00:39:08.114Z,2.40
2022-10-10T00:41:09.907Z,2.13
2022-10-10T00:43:13.746Z,2.65
2022-10-10T00:45:35.572Z,2.53
2022-10-10T00:47:37.340Z,2.95
2022-10-10T00:49:44.199Z,2.10
2022-10-10T00:51:48.831Z,2.20
2022-10-10T00:53:55.551Z,2.25
2022-10-10T00:55:57.489Z,2.08
2022-10-10T00:57:59.275Z,2.40
2022-10-10T01:00:01.171Z,2.10
2022-10-10T01:02:03.092Z,2.63
2022-10-10T01:04:05.596Z,2.05
2022-10-10T01:06:07.510Z,2.15
2022-10-10T01:08:10.295Z,2.30
2022-10-10T01:10:17.750Z,1.55
2022-10-10T01:12:51.775Z,2.15
2022-10-10T01:15:09.305Z,1.85
2022-10-10T01:17:54.415Z,2.20
2022-10-10T01:20:02.010Z,1.73
2022-10-10T01:22:38.803Z,2.10
2022-10-10T01:24:56.669Z,1.83
2022-10-10T01:27:18.667Z,1.70
2022-10-10T01:29:56.890Z,2.33
2022-10-10T01:32:16.286Z,2.40
2022-10-10T01:34:36.447Z,2.28
2022-10-10T01:36:43.810Z,2.55
2022-10-10T01:39:00.317Z,2.50
2022-10-10T01:41:14.783Z,2.42
2022-10-10T01:43:17.783Z,2.90
2022-10-10T01:45:19.680Z,2.08
2022-10-10T01:47:22.485Z,2.50
2022-10-10T01:49:28.572Z,2.50
2022-10-10T01:51:36.113Z,2.80
2022-10-10T01:53:48.751Z,2.63
2022-10-10T01:56:02.819Z,3.13
2022-10-10T01:58:16.093Z,2.47
2022-10-10T02:00:19.279Z,3.03
2022-10-10T02:02:28.084Z,2.78
2022-10-10T02:04:44.587Z,3.05
2022-10-10T02:06:53.541Z,2.58
2022-10-10T02:09:00.228Z,3.00
2022-10-10T02:11:08.450Z,3.17
2022-10-10T02:13:11.899Z,2.78
2022-10-10T02:15:21.693Z,2.80
2022-10-10T02:17:26.196Z,3.70
2022-10-10T02:19:30.069Z,3.05
2022-10-10T02:21:32.549Z,2.83
2022-10-10T02:23:35.643Z,3.35
2022-10-10T02:25:40.160Z,3.22
2022-10-10T02:27:59.636Z,2.70
2022-10-10T02:30:04.178Z,2.95
2022-10-10T02:32:22.053Z,2.95
2022-10-10T02:34:29.418Z,2.92
2022-10-10T02:36:31.952Z,2.70
2022-10-10T02:38:33.671Z,2.55
2022-10-10T02:40:36.355Z,2.55
2022-10-10T02:42:39.845Z,2.97
2022-10-10T02:44:42.335Z,2.33
2022-10-10T02:46:44.037Z,2.67
2022-10-10T02:48:45.936Z,2.50
2022-10-10T02:50:48.049Z,2.72
2022-10-10T02:52:49.979Z,2.30
2022-10-10T02:54:51.821Z,2.60
2022-10-10T02:56:53.962Z,2.53
2022-10-10T02:58:55.676Z,2.50
2022-10-10T03:00:57.489Z,2.63
2022-10-10T03:02:59.211Z,2.47
2022-10-10T03:05:00.845Z,2.63
2022-10-10T03:07:11.075Z,2.17
2022-10-10T03:09:12.745Z,2.38
2022-10-10T03:11:14.390Z,2.10
2022-10-10T03:13:16.031Z,2.33
2022-10-10T03:15:17.750Z,2.80
2022-10-10T03:17:19.432Z,2.03
2022-10-10T03:19:21.167Z,2.67
2022-10-10T03:21:22.800Z,2.42
2022-10-10T03:23:25.369Z,2.50
2022-10-10T03:25:26.994Z,2.58
2022-10-10T03:27:30.990Z,2.72
2022-10-10T03:29:32.806Z,2.63
2022-10-10T03:31:34.426Z,2.42
2022-10-10T03:33:36.168Z,2.85
2022-10-10T03:35:38.190Z,2.63
2022-10-10T03:37:39.831Z,2.22
2022-10-10T03:39:41.468Z,2.83
2022-10-10T03:41:43.139Z,2.78
2022-10-10T03:43:44.855Z,2.05
2022-10-10T03:45:47.743Z,2.10
2022-10-10T03:47:49.465Z,2.10
2022-10-10T03:49:51.073Z,2.30
2022-10-10T03:51:53.770Z,2.05
2022-10-10T03:53:55.673Z,1.90
2022-10-10T03:55:57.374Z,2.15
2022-10-10T03:57:59.094Z,2.13
2022-10-10T04:00:00.747Z,1.90
2022-10-10T04:02:02.389Z,2.50
2022-10-10T04:04:05.128Z,2.30
2022-10-10T04:06:07.498Z,2.53
2022-10-10T04:08:09.951Z,2.08
2022-10-10T04:10:11.739Z,2.50
2022-10-10T04:12:13.385Z,2.10
2022-10-10T04:14:15.034Z,2.10
2022-10-10T04:16:16.672Z,2.17
2022-10-10T04:18:19.032Z,2.55
2022-10-10T04:20:20.704Z,2.00
2022-10-10T04:22:22.463Z,2.20
2022-10-10T04:24:24.060Z,2.20
2022-10-10T04:26:25.741Z,2.28
2022-10-10T04:28:27.496Z,2.55
2022-10-10T04:30:34.486Z,2.72
2022-10-10T04:32:36.746Z,3.38
2022-10-10T04:34:38.425Z,2.75
2022-10-10T04:36:40.007Z,2.88
2022-10-10T04:38:41.666Z,2.58
2022-10-10T04:40:43.329Z,3.05
2022-10-10T04:42:44.968Z,2.90
2022-10-10T04:44:46.630Z,3.10
2022-10-10T04:46:48.329Z,3.05
2022-10-10T04:48:50.194Z,2.92
2022-10-10T04:50:53.510Z,2.40
2022-10-10T04:52:55.277Z,2.95
2022-10-10T04:54:56.973Z,2.65
2022-10-10T04:56:58.606Z,3.10
2022-10-10T04:59:00.348Z,2.85
2022-10-10T05:01:02.207Z,2.85
2022-10-10T05:03:03.992Z,3.22
2022-10-10T05:05:06.288Z,2.95
2022-10-10T05:07:13.287Z,2.60
2022-10-10T05:09:14.965Z,3.10
2022-10-10T05:11:16.685Z,3.20
2022-10-10T05:13:18.365Z,2.70
2022-10-10T05:15:21.538Z,3.10
2022-10-10T05:17:23.201Z,3.17
2022-10-10T05:19:25.012Z,2.70
2022-10-10T05:21:26.736Z,3.00
2022-10-10T05:23:28.472Z,2.90
2022-10-10T05:25:30.233Z,2.72
2022-10-10T05:27:31.881Z,3.13
2022-10-10T05:29:33.514Z,3.00
2022-10-10T05:31:35.186Z,3.08
2022-10-10T05:33:36.831Z,3.00
2022-10-10T05:35:38.493Z,3.03
2022-10-10T05:37:40.195Z,2.75
2022-10-10T05:39:41.984Z,3.08
2022-10-10T05:41:43.629Z,3.70
2022-10-10T05:43:45.323Z,3.97
2022-10-10T05:45:46.980Z,3.60
2022-10-10T05:47:48.623Z,3.90
2022-10-10T05:49:50.262Z,3.40
2022-10-10T05:51:51.960Z,3.65
2022-10-10T05:53:53.666Z,3.72
2022-10-10T05:55:55.428Z,4.05
2022-10-10T05:57:57.115Z,4.03
2022-10-10T05:59:58.750Z,3.95
2022-10-10T06:02:00.446Z,4.00
2022-10-10T06:04:02.294Z,3.63
2022-10-10T06:06:04.571Z,3.15
2022-10-10T06:08:11.600Z,3.65
2022-10-10T06:10:13.997Z,3.53
2022-10-10T06:12:15.619Z,3.60
2022-10-10T06:14:17.307Z,3.83
2022-10-10T06:16:19.028Z,4.22
2022-10-10T06:18:20.740Z,5.07
2022-10-10T06:20:22.656Z,3.55
2022-10-10T06:22:24.512Z,4.18
2022-10-10T06:24:26.250Z,3.90
2022-10-10T06:26:27.972Z,4.18
2022-10-10T06:28:29.657Z,4.90
2022-10-10T06:30:31.488Z,3.78
2022-10-10T06:32:33.261Z,3.97
2022-10-10T06:34:34.897Z,3.60
2022-10-10T06:36:36.521Z,3.80
2022-10-10T06:38:43.346Z,3.25
2022-10-10T06:40:46.047Z,3.33
2022-10-10T06:42:47.671Z,3.50
2022-10-10T06:44:49.413Z,2.90
2022-10-10T06:46:51.119Z,2.63
2022-10-10T06:48:52.784Z,1.70
2022-10-10T06:51:06.550Z,1.10
2022-10-10T06:53:08.237Z,1.13
2022-10-10T06:55:09.999Z,1.00
2022-10-10T06:57:13.199Z,0.80
2022-10-10T06:59:15.048Z,0.65
2022-10-10T07:01:18.729Z,0.70
2022-10-10T07:03:21.735Z,0.80
2022-10-10T07:05:23.433Z,0.70
2022-10-10T07:07:25.078Z,0.60
2022-10-10T07:09:26.712Z,0.73
2022-10-10T07:11:29.043Z,0.70
2022-10-10T07:13:31.260Z,0.77
2022-10-10T07:15:32.948Z,0.65
2022-10-10T07:17:34.779Z,0.70
2022-10-10T07:19:37.836Z,1.10
2022-10-10T07:21:39.644Z,0.70
2022-10-10T07:23:41.331Z,0.90
2022-10-10T07:25:43.858Z,1.35
2022-10-10T07:27:45.621Z,0.90
2022-10-10T07:29:47.248Z,1.30
2022-10-10T07:31:48.882Z,0.80
2022-10-10T07:33:51.084Z,0.70
2022-10-10T07:35:54.811Z,0.63
2022-10-10T07:37:56.634Z,0.57
2022-10-10T07:39:58.366Z,0.80
2022-10-10T07:41:59.982Z,0.93
2022-10-10T07:44:01.905Z,1.13
2022-10-10T07:46:08.199Z,0.45
2022-10-10T07:48:13.086Z,0.77
2022-10-10T07:50:14.747Z,0.93
2022-10-10T07:52:16.402Z,0.80
2022-10-10T07:54:18.288Z,0.70
2022-10-10T07:56:19.933Z,1.13
2022-10-10T07:58:21.540Z,0.77
2022-10-10T08:00:23.302Z,0.73
2022-10-10T08:02:25.069Z,0.77
2022-10-10T08:04:26.970Z,0.40
2022-10-10T08:06:28.828Z,0.90
2022-10-10T08:08:33.954Z,0.60
2022-10-10T08:10:36.438Z,0.63
2022-10-10T08:12:38.279Z,1.02
2022-10-10T08:14:55.759Z,0.55
2022-10-10T08:16:58.799Z,0.60
2022-10-10T08:19:00.634Z,1.65
2022-10-10T08:21:07.836Z,0.47
2022-10-10T08:23:09.503Z,0.50
2022-10-10T08:25:14.705Z,0.60
2022-10-10T08:27:20.990Z,0.70
2022-10-10T08:29:22.693Z,1.05
2022-10-10T08:31:24.469Z,1.67
2022-10-10T08:33:27.951Z,0.70
2022-10-10T08:35:29.754Z,0.95
2022-10-10T08:37:35.208Z,1.00
2022-10-10T08:39:39.034Z,0.73
2022-10-10T08:41:52.347Z,0.73
2022-10-10T08:44:30.257Z,0.52
2022-10-10T08:46:48.236Z,1.05
2022-10-10T08:48:52.005Z,0.77
2022-10-10T08:50:59.559Z,0.95
2022-10-10T08:53:06.533Z,0.68
2022-10-10T08:55:16.441Z,0.98
2022-10-10T08:57:34.026Z,1.13
2022-10-10T08:59:39.810Z,0.93
2022-10-10T09:02:20.060Z,0.80
2022-10-10T09:04:06.557Z,1.73
2022-10-10T09:06:23.426Z,1.98
2022-10-10T09:08:41.730Z,1.50
2022-10-10T09:10:45.965Z,1.17
2022-10-10T09:12:47.539Z,0.70
2022-10-10T09:14:53.097Z,1.00
2022-10-10T09:17:22.431Z,1.13
2022-10-10T09:19:33.066Z,0.90
2022-10-10T09:21:39.623Z,0.60
2022-10-10T09:23:50.079Z,0.63
2022-10-10T09:25:58.842Z,1.08
2022-10-10T09:28:11.507Z,1.02
2022-10-10T09:30:19.915Z,1.17
2022-10-10T09:32:25.921Z,0.75
2022-10-10T09:34:49.551Z,1.17
2022-10-10T09:36:54.174Z,1.25
2022-10-10T09:39:02.792Z,1.23
2022-10-10T09:41:29.888Z,1.00
2022-10-10T09:43:36.312Z,1.05
2022-10-10T09:45:45.154Z,1.20
2022-10-10T09:47:51.341Z,1.00
2022-10-10T09:49:53.119Z,1.48
2022-10-10T09:51:55.018Z,1.10
2022-10-10T09:53:56.799Z,0.82
2022-10-10T09:55:59.728Z,1.00
2022-10-10T09:58:12.039Z,1.30
2022-10-10T10:00:19.842Z,0.68
2022-10-10T10:02:24.942Z,1.02
2022-10-10T10:04:32.831Z,1.15
2022-10-10T10:06:34.610Z,1.33
2022-10-10T10:08:37.121Z,1.05
2022-10-10T10:10:39.010Z,1.25
2022-10-10T10:12:43.041Z,1.30
2022-10-10T10:14:44.812Z,0.90
2022-10-10T10:16:46.496Z,0.93
2022-10-10T10:18:48.254Z,1.00
2022-10-10T10:20:52.436Z,1.10
2022-10-10T10:22:54.221Z,1.05
2022-10-10T10:24:56.084Z,0.85
2022-10-10T10:27:20.570Z,0.93
2022-10-10T10:29:31.775Z,1.27
2022-10-10T10:31:58.071Z,1.45
2022-10-10T10:34:17.401Z,0.90
2022-10-10T10:36:49.144Z,0.68
2022-10-10T10:39:06.825Z,0.63
2022-10-10T10:41:44.206Z,1.17
2022-10-10T10:43:52.098Z,0.80
2022-10-10T10:46:03.015Z,1.38
2022-10-10T10:48:28.448Z,1.08
2022-10-10T10:50:37.750Z,1.02
2022-10-10T10:53:10.385Z,1.00
2022-10-10T10:55:39.395Z,0.75
2022-10-10T10:58:37.271Z,0.80
2022-10-10T11:01:19.935Z,0.45
2022-10-10T11:03:02.534Z,0.93
2022-10-10T11:05:42.438Z,0.60
2022-10-10T11:07:54.025Z,0.50
2022-10-10T11:10:01.552Z,0.77
2022-10-10T11:12:22.229Z,0.60
2022-10-10T11:14:47.544Z,0.32
2022-10-10T11:16:53.952Z,0.40
2022-10-10T11:19:16.375Z,1.08
2022-10-10T11:21:23.529Z,0.77
2022-10-10T11:23:47.553Z,1.38
2022-10-10T11:26:08.863Z,0.70
2022-10-10T11:28:20.552Z,0.60
2022-10-10T11:30:25.197Z,0.63
2022-10-10T11:32:43.059Z,0.68
2022-10-10T11:35:07.655Z,0.60
2022-10-10T11:37:25.678Z,1.10
2022-10-10T11:39:38.476Z,0.60
2022-10-10T11:41:43.094Z,0.63
2022-10-10T11:44:28.764Z,0.90
2022-10-10T11:46:44.312Z,0.60
2022-10-10T11:48:58.052Z,1.02
2022-10-10T11:51:16.127Z,0.50
2022-10-10T11:53:26.438Z,1.23
2022-10-10T11:55:43.438Z,1.00
2022-10-10T11:58:20.466Z,0.60
2022-10-10T12:00:22.657Z,0.93
2022-10-10T12:02:33.261Z,0.77
2022-10-10T12:04:36.210Z,1.20
2022-10-10T12:07:04.285Z,0.63
2022-10-10T12:09:13.511Z,0.60
2022-10-10T12:11:47.778Z,0.52
2022-10-10T12:13:56.759Z,0.55
2022-10-10T12:16:10.231Z,0.57
2022-10-10T12:18:38.550Z,0.98
2022-10-10T12:20:44.834Z,0.80
2022-10-10T12:23:06.205Z,0.40
2022-10-10T12:25:10.860Z,0.63
2022-10-10T12:27:47.448Z,0.60
2022-10-10T12:29:54.956Z,0.88
2022-10-10T12:32:14.937Z,1.08
2022-10-10T12:34:41.227Z,0.63
2022-10-10T12:36:57.069Z,0.68
2022-10-10T12:39:06.652Z,0.52
2022-10-10T12:41:18.808Z,0.82
2022-10-10T12:43:22.380Z,0.70
2022-10-10T12:45:33.010Z,0.55
2022-10-10T12:50:32.836Z,0.68
2022-10-10T12:52:53.751Z,0.77
2022-10-10T12:55:07.443Z,0.70
2022-10-10T12:57:17.842Z,1.02
2022-10-10T12:59:25.265Z,0.68
2022-10-10T13:01:33.552Z,0.85
2022-10-10T13:03:42.211Z,0.80
2022-10-10T13:05:45.807Z,1.20
2022-10-10T13:07:49.680Z,1.05
2022-10-10T13:09:53.732Z,0.50
2022-10-10T13:11:59.868Z,0.82
2022-10-10T13:14:08.926Z,1.05
2022-10-10T13:16:15.693Z,0.90
2022-10-10T13:18:35.294Z,0.60
2022-10-10T13:20:40.230Z,1.13
2022-10-10T13:22:45.219Z,0.65
2022-10-10T13:24:50.768Z,0.70
2022-10-10T13:26:53.573Z,1.20
2022-10-10T13:28:57.868Z,1.33
2022-10-10T13:31:00.568Z,0.50
2022-10-10T13:33:12.326Z,2.00
2022-10-10T13:35:21.901Z,1.00
2022-10-10T13:37:28.075Z,0.90
2022-10-10T13:39:32.351Z,0.82
2022-10-10T13:41:39.015Z,0.90
2022-10-10T13:43:45.671Z,1.05
2022-10-10T13:46:00.204Z,0.70
2022-10-10T13:48:41.904Z,0.70
2022-10-10T13:50:53.385Z,1.20
2022-10-10T13:53:30.229Z,0.90
2022-10-10T13:55:37.980Z,0.57
2022-10-10T13:57:41.468Z,0.70
2022-10-10T13:59:44.972Z,0.88
2022-10-10T14:01:49.454Z,0.60
2022-10-10T14:03:52.672Z,0.60
2022-10-10T14:05:54.551Z,1.17
2022-10-10T14:07:58.175Z,0.90
2022-10-10T14:10:06.126Z,0.57
2022-10-10T14:12:24.386Z,1.08
2022-10-10T14:14:43.285Z,0.88
2022-10-10T14:16:44.942Z,1.05
2022-10-10T14:18:46.745Z,0.95
2022-10-10T14:20:56.566Z,0.85
2022-10-10T14:23:01.530Z,0.50
2022-10-10T14:25:03.372Z,0.80
2022-10-10T14:27:36.881Z,1.10
2022-10-10T14:29:43.322Z,0.90
2022-10-10T14:31:46.744Z,0.70
2022-10-10T14:33:48.422Z,0.77
2022-10-10T14:35:53.936Z,0.73
2022-10-10T14:38:01.722Z,0.93
2022-10-10T14:40:04.325Z,0.97
2022-10-10T14:42:11.956Z,0.43
2022-10-10T14:44:16.107Z,1.80
2022-10-10T14:46:23.590Z,0.57
2022-10-10T14:48:25.435Z,1.27
2022-10-10T14:50:44.233Z,0.57
2022-10-10T14:52:46.040Z,1.55
2022-10-10T14:54:47.688Z,0.63
2022-10-10T14:57:09.043Z,0.65
2022-10-10T14:59:18.268Z,1.00
2022-10-10T15:01:39.929Z,0.50
2022-10-10T15:03:41.577Z,1.08
2022-10-10T15:05:43.428Z,0.50
2022-10-10T15:07:45.596Z,0.52
2022-10-10T15:12:11.785Z,0.60
2022-10-10T15:14:13.460Z,0.77
2022-10-10T15:16:16.449Z,0.70
2022-10-10T15:18:49.186Z,0.65
2022-10-10T15:20:41.038Z,0.80
2022-10-10T15:22:43.109Z,0.57
2022-10-10T15:24:47.705Z,0.57
2022-10-10T15:26:49.437Z,0.80
2022-10-10T15:28:55.309Z,0.57
2022-10-10T15:30:57.117Z,0.70
2022-10-10T15:32:58.764Z,0.50
2022-10-10T15:35:00.708Z,0.68
2022-10-10T15:37:03.059Z,0.60
2022-10-10T15:39:06.561Z,0.45
2022-10-10T15:41:10.192Z,0.65
2022-10-10T15:43:11.906Z,0.60
2022-10-10T15:45:19.375Z,1.33
2022-10-10T15:47:33.286Z,0.43
2022-10-10T15:49:35.335Z,0.90
2022-10-10T15:51:37.250Z,0.95
2022-10-10T15:53:39.174Z,0.60
2022-10-10T15:55:45.679Z,0.88
2022-10-10T15:57:47.313Z,0.73
2022-10-10T15:59:49.609Z,1.08
2022-10-10T16:01:51.249Z,1.23
2022-10-10T16:03:53.205Z,0.73
2022-10-10T16:05:54.906Z,0.77
2022-10-10T16:07:56.531Z,0.70
2022-10-10T16:09:59.109Z,0.80
2022-10-10T16:12:01.685Z,0.70
2022-10-10T16:14:03.525Z,0.43
2022-10-10T16:16:08.060Z,0.75
2022-10-10T16:18:09.736Z,0.68
2022-10-10T16:20:11.797Z,1.00
2022-10-10T16:22:13.462Z,0.95
2022-10-10T16:24:15.266Z,1.02
2022-10-10T16:26:20.073Z,0.93
2022-10-10T16:28:21.795Z,1.08
2022-10-10T16:30:23.451Z,1.48
2022-10-10T16:32:25.108Z,0.70
2022-10-10T16:34:26.792Z,1.17
2022-10-10T16:36:33.328Z,0.63
2022-10-10T16:38:36.206Z,1.13
2022-10-10T16:40:38.166Z,0.90
2022-10-10T16:42:39.771Z,0.70
2022-10-10T16:44:41.493Z,1.02
2022-10-10T16:46:43.236Z,1.25
2022-10-10T16:48:45.687Z,1.00
2022-10-10T16:50:47.353Z,0.60
2022-10-10T16:52:49.020Z,0.70
2022-10-10T16:54:52.384Z,1.20
2022-10-10T16:56:54.220Z,1.10
2022-10-10T16:58:57.635Z,1.02
2022-10-10T17:01:03.617Z,1.33
2022-10-10T17:03:07.545Z,1.25
2022-10-10T17:05:09.696Z,1.08
2022-10-10T17:07:18.421Z,1.35
2022-10-10T17:09:20.111Z,0.77
2022-10-10T17:11:22.740Z,0.70
2022-10-10T17:13:24.627Z,0.82
2022-10-10T17:15:26.633Z,0.80
2022-10-10T17:17:28.282Z,0.70
2022-10-10T17:19:29.955Z,0.95
2022-10-10T17:21:31.821Z,1.10
2022-10-10T17:23:33.527Z,1.10
2022-10-10T17:25:35.174Z,0.80
2022-10-10T17:27:38.945Z,1.50
2022-10-10T17:29:40.717Z,0.82
2022-10-10T17:31:42.948Z,1.52
2022-10-10T17:33:51.002Z,1.08
2022-10-10T17:35:55.152Z,0.90
2022-10-10T17:37:56.883Z,1.30
2022-10-10T17:39:58.631Z,1.17
2022-10-10T17:42:00.614Z,1.58
2022-10-10T17:44:02.453Z,1.38
2022-10-10T17:46:33.073Z,1.70
2022-10-10T17:48:36.811Z,1.10
2022-10-10T17:50:38.485Z,1.48
2022-10-10T17:52:40.257Z,1.17
2022-10-10T17:54:41.977Z,1.17
2022-10-10T17:56:44.752Z,1.23
2022-10-10T17:58:47.307Z,1.35
2022-10-10T18:00:49.196Z,1.58
2022-10-10T18:02:50.853Z,1.45
2022-10-10T18:04:52.582Z,2.40
2022-10-10T18:06:54.240Z,1.83
2022-10-10T18:08:57.153Z,1.60
2022-10-10T18:10:59.101Z,2.17
2022-10-10T18:13:01.823Z,2.15
2022-10-10T18:15:04.250Z,2.00
2022-10-10T18:17:10.645Z,1.98
2022-10-10T18:19:12.295Z,1.77
2022-10-10T18:21:14.647Z,1.30
2022-10-10T18:23:16.416Z,1.73
2022-10-10T18:25:21.627Z,2.15
2022-10-10T18:27:26.928Z,2.00
2022-10-10T18:29:28.572Z,2.63
2022-10-10T18:31:33.436Z,2.20
2022-10-10T18:33:35.189Z,1.52
2022-10-10T18:35:41.323Z,2.05
2022-10-10T18:37:43.360Z,2.03
2022-10-10T18:39:45.023Z,1.48
2022-10-10T18:41:47.337Z,1.73
2022-10-10T18:43:50.687Z,1.88
2022-10-10T18:45:53.955Z,2.13
2022-10-10T18:47:55.724Z,2.03
2022-10-10T18:49:57.502Z,1.83
2022-10-10T18:51:59.239Z,1.92
2022-10-10T18:54:08.262Z,2.40
2022-10-10T18:56:12.921Z,1.58
2022-10-10T18:58:14.620Z,1.58
2022-10-10T19:00:16.658Z,1.55
2022-10-10T19:02:18.329Z,1.90
2022-10-10T19:04:20.875Z,1.65
2022-10-10T19:06:24.518Z,1.90
2022-10-10T19:08:26.208Z,1.80
2022-10-10T19:10:27.838Z,1.90
2022-10-10T19:12:29.465Z,2.60
2022-10-10T19:14:31.115Z,2.22
2022-10-10T19:16:33.682Z,3.03
2022-10-10T19:18:35.329Z,2.83
2022-10-10T19:20:39.167Z,2.88
2022-10-10T19:22:40.837Z,2.67
2022-10-10T19:24:42.624Z,2.20
2022-10-10T19:26:44.846Z,2.40
2022-10-10T19:28:46.981Z,2.72
2022-10-10T19:30:48.702Z,2.42
2022-10-10T19:32:50.458Z,2.13
2022-10-10T19:34:53.297Z,1.80
2022-10-10T19:36:54.933Z,2.15
2022-10-10T19:38:58.931Z,2.17
2022-10-10T19:41:01.146Z,2.80
2022-10-10T19:43:03.194Z,2.42
2022-10-10T19:45:05.132Z,1.60
2022-10-10T19:47:23.223Z,1.98
2022-10-10T19:49:24.919Z,1.83
2022-10-10T19:51:29.291Z,1.58
2022-10-10T19:53:33.444Z,2.30
2022-10-10T19:55:35.135Z,2.33
2022-10-10T19:57:37.365Z,1.75
2022-10-10T19:59:39.164Z,2.15
2022-10-10T20:01:40.926Z,2.13
2022-10-10T20:03:43.960Z,2.30
2022-10-10T20:05:45.603Z,2.55
2022-10-10T20:07:49.875Z,1.90
2022-10-10T20:09:51.632Z,3.00
2022-10-10T20:11:53.292Z,2.00
2022-10-10T20:13:55.968Z,2.20
2022-10-10T20:16:03.809Z,2.15
2022-10-10T20:18:05.737Z,2.10
2022-10-10T20:20:08.012Z,2.05
2022-10-10T20:22:09.788Z,1.83
2022-10-10T20:24:11.851Z,1.80
2022-10-10T20:26:17.418Z,2.05
2022-10-10T20:28:20.820Z,2.03
2022-10-10T20:30:22.853Z,2.13
2022-10-10T20:32:24.610Z,1.80
2022-10-10T20:34:26.317Z,1.77
2022-10-10T20:36:30.189Z,1.88
2022-10-10T20:38:31.877Z,1.80
2022-10-10T20:40:37.739Z,1.80
2022-10-10T20:42:40.210Z,1.08
2022-10-10T20:44:42.547Z,1.45
2022-10-10T20:46:46.352Z,2.00
2022-10-10T20:48:48.453Z,1.45
2022-10-10T20:50:50.127Z,1.40
2022-10-10T20:52:51.807Z,1.67
2022-10-10T20:54:53.511Z,1.67
2022-10-10T20:56:55.145Z,1.85
2022-10-10T20:58:56.896Z,1.63
2022-10-10T21:01:07.164Z,2.30
2022-10-10T21:03:08.814Z,2.13
2022-10-10T21:05:10.509Z,1.98
2022-10-10T21:07:20.242Z,2.60
2022-10-10T21:09:21.944Z,2.42
2022-10-10T21:11:23.963Z,1.55
2022-10-10T21:13:25.739Z,2.15
2022-10-10T21:15:27.458Z,1.80
2022-10-10T21:17:29.530Z,1.60
2022-10-10T21:19:31.636Z,1.80
2022-10-10T21:21:35.213Z,1.80
2022-10-10T21:23:39.336Z,1.40
2022-10-10T21:25:41.824Z,1.85
2022-10-10T21:27:43.442Z,2.70
2022-10-10T21:29:45.157Z,1.77
2022-10-10T21:31:47.203Z,1.65
2022-10-10T21:33:49.023Z,2.25
2022-10-10T21:35:52.673Z,1.52
2022-10-10T21:37:54.345Z,1.83
2022-10-10T21:39:55.993Z,2.38
2022-10-10T21:41:57.634Z,2.42
2022-10-10T21:43:59.836Z,1.20
2022-10-10T21:46:12.035Z,2.15
2022-10-10T21:48:14.239Z,1.60
2022-10-10T21:50:16.003Z,1.75
2022-10-10T21:52:17.626Z,3.08
2022-10-10T21:54:19.294Z,2.17
2022-10-10T21:56:20.934Z,1.98
2022-10-10T21:58:26.377Z,2.00
2022-10-10T22:00:28.135Z,1.85
2022-10-10T22:02:29.835Z,2.33
2022-10-10T22:04:31.473Z,1.98
2022-10-10T22:06:33.136Z,2.17
2022-10-10T22:08:35.503Z,1.80
2022-10-10T22:10:40.866Z,1.70
2022-10-10T22:12:42.799Z,1.67
2022-10-10T22:14:44.435Z,2.53
2022-10-10T22:16:46.366Z,1.70
2022-10-10T22:18:52.264Z,2.40
2022-10-10T22:20:53.974Z,2.33
2022-10-10T22:22:55.649Z,2.00
2022-10-10T22:24:57.629Z,2.00
2022-10-10T22:26:59.544Z,2.03
2022-10-10T22:29:01.234Z,2.47
2022-10-10T22:31:05.380Z,1.65
2022-10-10T22:33:07.383Z,1.77
2022-10-10T22:35:09.192Z,1.58
2022-10-10T22:37:18.238Z,1.90
2022-10-10T22:39:20.196Z,2.17
2022-10-10T22:41:22.224Z,1.75
2022-10-10T22:43:26.930Z,2.15
2022-10-10T22:45:29.465Z,2.50
2022-10-10T22:47:31.243Z,1.85
2022-10-10T22:49:35.002Z,2.53
2022-10-10T22:51:36.632Z,2.10
2022-10-10T22:53:42.678Z,2.40
2022-10-10T22:55:44.313Z,2.85
2022-10-10T22:57:46.235Z,3.10
2022-10-10T22:59:48.488Z,2.70
2022-10-10T23:01:51.694Z,2.22
2022-10-10T23:03:55.533Z,2.60
2022-10-10T23:05:57.259Z,2.83
2022-10-10T23:07:58.859Z,1.80
2022-10-10T23:10:00.602Z,2.08
2022-10-10T23:12:02.262Z,2.33
2022-10-10T23:14:04.318Z,2.40
2022-10-10T23:16:06.726Z,1.80
2022-10-10T23:18:08.680Z,2.35
2022-10-10T23:20:10.530Z,1.83
2022-10-10T23:22:13.026Z,2.38
2022-10-10T23:24:14.777Z,1.90
2022-10-10T23:26:16.564Z,1.92
2022-10-10T23:28:19.131Z,1.80
2022-10-10T23:30:21.070Z,1.50
2022-10-10T23:32:23.581Z,1.63
2022-10-10T23:34:25.291Z,2.15
2022-10-10T23:36:26.944Z,1.98
2022-10-10T23:38:29.259Z,1.65
2022-10-10T23:40:32.817Z,2.60
2022-10-10T23:42:34.511Z,2.42
2022-10-10T23:44:36.230Z,1.85
2022-10-10T23:46:37.862Z,1.95
2022-10-10T23:48:39.632Z,2.65
2022-10-10T23:50:41.400Z,2.13
2022-10-10T23:52:43.163Z,2.80
2022-10-10T23:54:44.806Z,2.15
2022-10-10T23:56:46.427Z,1.83
2022-10-10T23:58:48.049Z,2.95
